Aérodrome :
LOGIN :

S'inscrire | Disclaimer

   EN    FR    IT 

 










Légende :    VFR   VFR Marginal   IFR   IFR Intensif   IFR Très Intensif
Visi : 
Plafond : 
>= 8 km
>= 3000ft
5 à 8 km
1000 à 3000 ft
1500m à 5 km
500 à 1000 ft
800 à 1500m
200 à 500 ft
< 800m
< 200 ft
Symboles :   Orages  Brouillard  Fortes neiges  Fortes précipitations  Vent > 20 kt
SIGMETs :   Divers  Orages  Givrage  Turbulence  Onde Orograph.  Cendres Volcan.






- Altitude de l'aérodrome : 779 ft
- Code IATA : CMF


LFLB - Chambery / Aix-Les-Bains

DERNIER METAR :
  • 140030Z AUTO 15005KT 110V190 CAVOK 02/M00 Q1004

METARs EXPIRÉS :
  • 140000Z AUTO 21007KT CAVOK 03/01 Q1004
  • 132330Z AUTO 20005KT CAVOK 02/01 Q1005
  • 132300Z AUTO 17005KT 130V220 CAVOK M00/M01 Q1005
  • 132230Z AUTO VRB02KT 9999 FEW034 00/M01 Q1006 NOSIG
  • 132200Z AUTO VRB01KT 9999 FEW033 M00/M01 Q1006 NOSIG

TAF TAF LFLB
Valide du 13 à 18h jusqu'au 14 à 18h UTC


131700Z 1318/1418 16007KT CAVOK
BECMG 1406/1408 36010KT
PROB30
TEMPO 1412/1418 -RA



MET'MAP, la Météo Aéronautique d'un coup d'oeil ! - Copyright ORBIFLY Décembre 2007 - Disclaimer

ORBIFLY MET'MAP TEAM :

Programmation & Développement : Alexandra Zaïnal
Conception & Développement : Baudouin d'Aumeries
Co-Programmation & Développement : Marc-Olivier Méhu
Soutien technique & logistique : Manuel Goepfert

Contact : metmap@orbifly.com




SOURCES & CREDITS :

   NOAA